Skip Navigation LinksHome page > Weather > Current weather Skip Navigation Links

Current Weather

Chicago O'Hare Intl, Chicago

For information only: do not use for flight planning or navigation.
Latest weather
Observation time Tuesday, January 26, 2021 4:51 PM CST
Local time Tuesday, January 26, 2021 5:50 PM CST
Flight conditions Marginal Visual Meteorological Conditions
Winds
Wind direction North (360°)
Wind speed 20 mph
Visibility 6 mi.
Present weather light snow
Sky condition
Ceiling 1,600 ft. broken clouds
Cloud layer broken clouds 1,600 ft.
Cloud layer overcast 2,800 ft.
Temperature 30°F
Dewpoint 24°F
Altimeter 30.03 in.Hg
Precipitation
Precipitation last hour trace
Derived measurements
Relative humidity 78%
Wind chill 18°F
Density altitude -1361 ft.
Sea-level pressure 30.05 in.Hg
Remarks
System requires maintenance.
Automated weather observing station with precipitation discriminator.
METAR KORD 262251Z 36017KT 6SM -SN BKN016 OVC028 M01/M04 A3003 RMK AO2 SLP177 P0000 T10111044 $

Settings

Location code

InnerDrive.Weather 4.0.6770.0 Release CLR 4.0.30319.42000
Copyright ©2018 Inner Drive Technology. All rights reserved. Portions Copyright ©1986-2018 David Braverman.

Find weather

Site navigation


Skip Navigation Links

Place info

Page info

PayPal - The safer, easier way to pay online!

Return home.

Copyright ©2021 Inner Drive Technology. Purveyors of fine, hand-crafted computer software. Page printed 2021-01-26T23:50:15 UTC.